sensor_id;sensor_type;location;lat;lon;timestamp;temperature;humidity
26224;DHT22;14820;48.682;8.890;2024-02-21T00:00:47;4.60;99.90
26224;DHT22;14820;48.682;8.890;2024-02-21T00:03:13;4.60;99.90
26224;DHT22;14820;48.682;8.890;2024-02-21T00:05:39;4.60;99.90
26224;DHT22;14820;48.682;8.890;2024-02-21T00:08:05;4.50;99.90
26224;DHT22;14820;48.682;8.890;2024-02-21T00:10:30;4.50;99.90
26224;DHT22;14820;48.682;8.890;2024-02-21T00:12:59;4.50;99.90
26224;DHT22;14820;48.682;8.890;2024-02-21T00:15:25;4.50;99.90
26224;DHT22;14820;48.682;8.890;2024-02-21T00:17:51;4.50;99.90
26224;DHT22;14820;48.682;8.890;2024-02-21T00:20:16;4.60;99.90
26224;DHT22;14820;48.682;8.890;2024-02-21T00:22:43;4.50;99.90
26224;DHT22;14820;48.682;8.890;2024-02-21T00:25:08;4.50;99.90
26224;DHT22;14820;48.682;8.890;2024-02-21T00:27:34;4.60;99.90
26224;DHT22;14820;48.682;8.890;2024-02-21T00:30:00;4.60;99.90
26224;DHT22;14820;48.682;8.890;2024-02-21T00:32:26;4.60;99.90
26224;DHT22;14820;48.682;8.890;2024-02-21T00:34:51;4.60;99.90
26224;DHT22;14820;48.682;8.890;2024-02-21T00:37:17;4.60;99.90
26224;DHT22;14820;48.682;8.890;2024-02-21T00:39:43;4.50;99.90
26224;DHT22;14820;48.682;8.890;2024-02-21T00:42:08;4.60;99.90
26224;DHT22;14820;48.682;8.890;2024-02-21T00:44:34;4.60;99.90
26224;DHT22;14820;48.682;8.890;2024-02-21T00:47:00;4.60;99.90
26224;DHT22;14820;48.682;8.890;2024-02-21T00:49:26;4.60;99.90
26224;DHT22;14820;48.682;8.890;2024-02-21T00:51:51;4.50;99.90
26224;DHT22;14820;48.682;8.890;2024-02-21T00:54:17;4.50;99.90
26224;DHT22;14820;48.682;8.890;2024-02-21T00:56:43;4.50;99.90
26224;DHT22;14820;48.682;8.890;2024-02-21T00:59:09;4.60;99.90
26224;DHT22;14820;48.682;8.890;2024-02-21T01:01:34;4.60;99.90
26224;DHT22;14820;48.682;8.890;2024-02-21T01:04:00;4.60;99.90
26224;DHT22;14820;48.682;8.890;2024-02-21T01:06:25;4.60;99.90
26224;DHT22;14820;48.682;8.890;2024-02-21T01:08:51;4.60;99.90
26224;DHT22;14820;48.682;8.890;2024-02-21T01:11:17;4.70;99.90
26224;DHT22;14820;48.682;8.890;2024-02-21T01:13:43;4.60;99.90
26224;DHT22;14820;48.682;8.890;2024-02-21T01:16:09;4.60;99.90
26224;DHT22;14820;48.682;8.890;2024-02-21T01:18:37;4.60;99.90
26224;DHT22;14820;48.682;8.890;2024-02-21T01:21:03;4.60;99.90
26224;DHT22;14820;48.682;8.890;2024-02-21T01:23:35;4.70;99.90
26224;DHT22;14820;48.682;8.890;2024-02-21T01:26:02;4.70;99.90
26224;DHT22;14820;48.682;8.890;2024-02-21T01:28:27;4.70;99.90
26224;DHT22;14820;48.682;8.890;2024-02-21T01:30:53;4.70;99.90
26224;DHT22;14820;48.682;8.890;2024-02-21T01:33:18;4.80;99.90
26224;DHT22;14820;48.682;8.890;2024-02-21T01:35:44;4.80;99.90
26224;DHT22;14820;48.682;8.890;2024-02-21T01:38:12;4.80;99.90
26224;DHT22;14820;48.682;8.890;2024-02-21T01:40:38;4.80;99.90
26224;DHT22;14820;48.682;8.890;2024-02-21T01:43:03;4.80;99.90
26224;DHT22;14820;48.682;8.890;2024-02-21T01:45:29;4.80;99.90
26224;DHT22;14820;48.682;8.890;2024-02-21T01:47:55;4.80;99.90
26224;DHT22;14820;48.682;8.890;2024-02-21T01:50:22;4.80;99.90
26224;DHT22;14820;48.682;8.890;2024-02-21T01:52:49;4.80;99.90
26224;DHT22;14820;48.682;8.890;2024-02-21T01:55:16;4.80;99.90
26224;DHT22;14820;48.682;8.890;2024-02-21T01:57:43;4.80;99.90
26224;DHT22;14820;48.682;8.890;2024-02-21T02:00:14;4.80;99.90
26224;DHT22;14820;48.682;8.890;2024-02-21T02:02:40;4.80;99.90
26224;DHT22;14820;48.682;8.890;2024-02-21T02:05:08;4.80;99.90
26224;DHT22;14820;48.682;8.890;2024-02-21T02:07:33;4.80;99.90
26224;DHT22;14820;48.682;8.890;2024-02-21T02:09:59;4.90;99.90
26224;DHT22;14820;48.682;8.890;2024-02-21T02:12:25;4.90;99.90
26224;DHT22;14820;48.682;8.890;2024-02-21T02:14:59;4.90;99.90
26224;DHT22;14820;48.682;8.890;2024-02-21T02:17:24;4.90;99.90
26224;DHT22;14820;48.682;8.890;2024-02-21T02:19:50;4.90;99.90
26224;DHT22;14820;48.682;8.890;2024-02-21T02:22:22;5.00;99.90
26224;DHT22;14820;48.682;8.890;2024-02-21T02:24:48;4.90;99.90
26224;DHT22;14820;48.682;8.890;2024-02-21T02:27:14;4.90;99.90
26224;DHT22;14820;48.682;8.890;2024-02-21T02:29:39;5.00;99.90
26224;DHT22;14820;48.682;8.890;2024-02-21T02:32:05;5.00;99.90
26224;DHT22;14820;48.682;8.890;2024-02-21T02:34:31;5.00;99.90
26224;DHT22;14820;48.682;8.890;2024-02-21T02:36:56;5.00;99.90
26224;DHT22;14820;48.682;8.890;2024-02-21T02:39:22;5.00;99.90
26224;DHT22;14820;48.682;8.890;2024-02-21T02:41:48;5.00;99.90
26224;DHT22;14820;48.682;8.890;2024-02-21T02:44:13;5.00;99.90
26224;DHT22;14820;48.682;8.890;2024-02-21T02:46:42;5.00;99.90
26224;DHT22;14820;48.682;8.890;2024-02-21T02:49:08;5.10;99.90
26224;DHT22;14820;48.682;8.890;2024-02-21T02:51:34;5.10;99.90
26224;DHT22;14820;48.682;8.890;2024-02-21T02:54:00;5.10;99.90
26224;DHT22;14820;48.682;8.890;2024-02-21T02:56:25;5.10;99.90
26224;DHT22;14820;48.682;8.890;2024-02-21T02:58:51;5.00;99.90
26224;DHT22;14820;48.682;8.890;2024-02-21T03:01:16;5.10;99.90
26224;DHT22;14820;48.682;8.890;2024-02-21T03:03:42;5.10;99.90
26224;DHT22;14820;48.682;8.890;2024-02-21T03:06:08;5.10;99.90
26224;DHT22;14820;48.682;8.890;2024-02-21T03:08:33;5.10;99.90
26224;DHT22;14820;48.682;8.890;2024-02-21T03:10:59;5.10;99.90
26224;DHT22;14820;48.682;8.890;2024-02-21T03:13:26;5.10;99.90
26224;DHT22;14820;48.682;8.890;2024-02-21T03:15:51;5.10;99.90
26224;DHT22;14820;48.682;8.890;2024-02-21T03:18:17;5.10;99.90
26224;DHT22;14820;48.682;8.890;2024-02-21T03:20:43;5.20;99.90
26224;DHT22;14820;48.682;8.890;2024-02-21T03:23:08;5.20;99.90
26224;DHT22;14820;48.682;8.890;2024-02-21T03:25:34;5.20;99.90
26224;DHT22;14820;48.682;8.890;2024-02-21T03:27:59;5.20;99.90
26224;DHT22;14820;48.682;8.890;2024-02-21T03:30:25;5.20;99.90
26224;DHT22;14820;48.682;8.890;2024-02-21T03:32:51;5.20;99.90
26224;DHT22;14820;48.682;8.890;2024-02-21T03:35:16;5.20;99.90
26224;DHT22;14820;48.682;8.890;2024-02-21T03:37:44;5.20;99.90
26224;DHT22;14820;48.682;8.890;2024-02-21T03:40:10;5.20;99.90
26224;DHT22;14820;48.682;8.890;2024-02-21T03:42:36;5.20;99.90
26224;DHT22;14820;48.682;8.890;2024-02-21T03:45:02;5.20;99.90
26224;DHT22;14820;48.682;8.890;2024-02-21T03:47:29;5.30;99.90
26224;DHT22;14820;48.682;8.890;2024-02-21T03:49:54;5.20;99.90
26224;DHT22;14820;48.682;8.890;2024-02-21T03:52:20;5.20;99.90
26224;DHT22;14820;48.682;8.890;2024-02-21T03:54:46;5.20;99.90
26224;DHT22;14820;48.682;8.890;2024-02-21T03:57:11;5.20;99.90
26224;DHT22;14820;48.682;8.890;2024-02-21T03:59:37;5.20;99.90
26224;DHT22;14820;48.682;8.890;2024-02-21T04:02:05;5.20;99.90
26224;DHT22;14820;48.682;8.890;2024-02-21T04:04:37;5.20;99.90
26224;DHT22;14820;48.682;8.890;2024-02-21T04:07:03;5.30;99.90
26224;DHT22;14820;48.682;8.890;2024-02-21T04:09:32;5.30;99.90
26224;DHT22;14820;48.682;8.890;2024-02-21T04:11:59;5.20;99.90
26224;DHT22;14820;48.682;8.890;2024-02-21T04:14:25;5.20;99.90
26224;DHT22;14820;48.682;8.890;2024-02-21T04:16:50;5.20;99.90
26224;DHT22;14820;48.682;8.890;2024-02-21T04:19:16;5.20;99.90
26224;DHT22;14820;48.682;8.890;2024-02-21T04:21:42;5.30;99.90
26224;DHT22;14820;48.682;8.890;2024-02-21T04:24:07;5.20;99.90
26224;DHT22;14820;48.682;8.890;2024-02-21T04:26:33;5.20;99.90
26224;DHT22;14820;48.682;8.890;2024-02-21T04:28:59;5.20;99.90
26224;DHT22;14820;48.682;8.890;2024-02-21T04:31:25;5.20;99.90
26224;DHT22;14820;48.682;8.890;2024-02-21T04:33:51;5.30;99.90
26224;DHT22;14820;48.682;8.890;2024-02-21T04:36:16;5.30;99.90
26224;DHT22;14820;48.682;8.890;2024-02-21T04:38:42;5.30;99.90
26224;DHT22;14820;48.682;8.890;2024-02-21T04:41:08;5.30;99.90
26224;DHT22;14820;48.682;8.890;2024-02-21T04:43:33;5.20;99.90
26224;DHT22;14820;48.682;8.890;2024-02-21T04:45:59;5.20;99.90
26224;DHT22;14820;48.682;8.890;2024-02-21T04:48:25;5.20;99.90
26224;DHT22;14820;48.682;8.890;2024-02-21T04:50:51;5.20;99.90
26224;DHT22;14820;48.682;8.890;2024-02-21T04:53:17;5.20;99.90
26224;DHT22;14820;48.682;8.890;2024-02-21T04:55:43;5.20;99.90
26224;DHT22;14820;48.682;8.890;2024-02-21T04:58:08;5.20;99.90
26224;DHT22;14820;48.682;8.890;2024-02-21T05:00:34;5.20;99.90
26224;DHT22;14820;48.682;8.890;2024-02-21T05:03:00;5.10;99.90
26224;DHT22;14820;48.682;8.890;2024-02-21T05:05:25;5.10;99.90
26224;DHT22;14820;48.682;8.890;2024-02-21T05:07:51;5.20;99.90
26224;DHT22;14820;48.682;8.890;2024-02-21T05:10:17;5.10;99.90
26224;DHT22;14820;48.682;8.890;2024-02-21T05:12:43;5.10;99.90
26224;DHT22;14820;48.682;8.890;2024-02-21T05:15:09;5.00;99.90
26224;DHT22;14820;48.682;8.890;2024-02-21T05:17:35;5.00;99.90
26224;DHT22;14820;48.682;8.890;2024-02-21T05:20:01;4.90;99.90
26224;DHT22;14820;48.682;8.890;2024-02-21T05:22:27;4.90;99.90
26224;DHT22;14820;48.682;8.890;2024-02-21T05:24:52;4.80;99.90
26224;DHT22;14820;48.682;8.890;2024-02-21T05:27:18;4.80;99.90
26224;DHT22;14820;48.682;8.890;2024-02-21T05:29:43;4.70;99.90
26224;DHT22;14820;48.682;8.890;2024-02-21T05:32:09;4.70;99.90
26224;DHT22;14820;48.682;8.890;2024-02-21T05:34:35;4.60;99.90
26224;DHT22;14820;48.682;8.890;2024-02-21T05:37:01;4.60;99.90
26224;DHT22;14820;48.682;8.890;2024-02-21T05:39:26;4.60;99.90
26224;DHT22;14820;48.682;8.890;2024-02-21T05:41:54;4.60;99.90
26224;DHT22;14820;48.682;8.890;2024-02-21T05:44:20;4.60;99.90
26224;DHT22;14820;48.682;8.890;2024-02-21T05:46:47;4.60;99.90
26224;DHT22;14820;48.682;8.890;2024-02-21T05:49:13;4.60;99.90
26224;DHT22;14820;48.682;8.890;2024-02-21T05:51:39;4.60;99.90
26224;DHT22;14820;48.682;8.890;2024-02-21T05:54:04;4.60;99.90
26224;DHT22;14820;48.682;8.890;2024-02-21T05:56:30;4.50;99.90
26224;DHT22;14820;48.682;8.890;2024-02-21T05:58:55;4.50;99.90
26224;DHT22;14820;48.682;8.890;2024-02-21T06:01:22;4.50;99.90
26224;DHT22;14820;48.682;8.890;2024-02-21T06:03:47;4.50;99.90
26224;DHT22;14820;48.682;8.890;2024-02-21T06:06:13;4.60;99.90
26224;DHT22;14820;48.682;8.890;2024-02-21T06:08:40;4.60;99.90
26224;DHT22;14820;48.682;8.890;2024-02-21T06:11:06;4.60;99.90
26224;DHT22;14820;48.682;8.890;2024-02-21T06:13:31;4.60;99.90
26224;DHT22;14820;48.682;8.890;2024-02-21T06:15:57;4.60;99.90
26224;DHT22;14820;48.682;8.890;2024-02-21T06:18:23;4.60;99.90
26224;DHT22;14820;48.682;8.890;2024-02-21T06:20:48;4.60;99.90
26224;DHT22;14820;48.682;8.890;2024-02-21T06:23:16;4.70;99.90
26224;DHT22;14820;48.682;8.890;2024-02-21T06:25:45;4.60;99.90
26224;DHT22;14820;48.682;8.890;2024-02-21T06:28:11;4.60;99.90
26224;DHT22;14820;48.682;8.890;2024-02-21T06:30:37;4.60;99.90
26224;DHT22;14820;48.682;8.890;2024-02-21T06:33:03;4.60;99.90
26224;DHT22;14820;48.682;8.890;2024-02-21T06:35:29;4.50;99.90
26224;DHT22;14820;48.682;8.890;2024-02-21T06:37:54;4.50;99.90
26224;DHT22;14820;48.682;8.890;2024-02-21T06:40:23;4.60;99.90
26224;DHT22;14820;48.682;8.890;2024-02-21T06:42:50;4.50;99.90
26224;DHT22;14820;48.682;8.890;2024-02-21T06:45:16;4.50;99.90
26224;DHT22;14820;48.682;8.890;2024-02-21T06:47:42;4.60;99.90
26224;DHT22;14820;48.682;8.890;2024-02-21T06:50:08;4.50;99.90
26224;DHT22;14820;48.682;8.890;2024-02-21T06:52:35;4.40;99.90
26224;DHT22;14820;48.682;8.890;2024-02-21T06:55:01;4.40;99.90
26224;DHT22;14820;48.682;8.890;2024-02-21T06:57:28;4.40;99.90
26224;DHT22;14820;48.682;8.890;2024-02-21T06:59:54;4.50;99.90
26224;DHT22;14820;48.682;8.890;2024-02-21T07:02:19;4.50;99.90
26224;DHT22;14820;48.682;8.890;2024-02-21T07:04:45;4.50;99.90
26224;DHT22;14820;48.682;8.890;2024-02-21T07:07:10;4.50;99.90
26224;DHT22;14820;48.682;8.890;2024-02-21T07:09:36;4.60;99.90
26224;DHT22;14820;48.682;8.890;2024-02-21T07:12:02;4.50;99.90
26224;DHT22;14820;48.682;8.890;2024-02-21T07:14:29;4.60;99.90
26224;DHT22;14820;48.682;8.890;2024-02-21T07:16:55;4.60;99.90
26224;DHT22;14820;48.682;8.890;2024-02-21T07:19:22;4.60;99.90
26224;DHT22;14820;48.682;8.890;2024-02-21T07:21:48;4.60;99.90
26224;DHT22;14820;48.682;8.890;2024-02-21T07:24:13;4.60;99.90
26224;DHT22;14820;48.682;8.890;2024-02-21T07:26:42;4.70;99.90
26224;DHT22;14820;48.682;8.890;2024-02-21T07:29:08;4.70;99.90
26224;DHT22;14820;48.682;8.890;2024-02-21T07:31:44;4.80;99.90
26224;DHT22;14820;48.682;8.890;2024-02-21T07:34:09;4.80;99.90
26224;DHT22;14820;48.682;8.890;2024-02-21T07:36:35;4.90;99.90
26224;DHT22;14820;48.682;8.890;2024-02-21T07:39:02;5.00;99.90
26224;DHT22;14820;48.682;8.890;2024-02-21T07:41:28;5.00;99.90
26224;DHT22;14820;48.682;8.890;2024-02-21T07:43:55;5.00;99.90
26224;DHT22;14820;48.682;8.890;2024-02-21T07:46:21;5.10;99.90
26224;DHT22;14820;48.682;8.890;2024-02-21T07:48:47;5.10;99.90
26224;DHT22;14820;48.682;8.890;2024-02-21T07:51:13;5.10;99.90
26224;DHT22;14820;48.682;8.890;2024-02-21T07:53:39;5.20;99.90
26224;DHT22;14820;48.682;8.890;2024-02-21T07:56:12;5.20;99.90
26224;DHT22;14820;48.682;8.890;2024-02-21T07:58:38;5.20;99.90
26224;DHT22;14820;48.682;8.890;2024-02-21T08:01:03;5.30;99.90
26224;DHT22;14820;48.682;8.890;2024-02-21T08:03:29;5.20;99.90
26224;DHT22;14820;48.682;8.890;2024-02-21T08:05:55;5.30;99.90
26224;DHT22;14820;48.682;8.890;2024-02-21T08:08:20;5.30;99.90
26224;DHT22;14820;48.682;8.890;2024-02-21T08:10:48;5.30;99.90
26224;DHT22;14820;48.682;8.890;2024-02-21T08:13:14;5.40;99.90
26224;DHT22;14820;48.682;8.890;2024-02-21T08:15:39;5.40;99.90
26224;DHT22;14820;48.682;8.890;2024-02-21T08:18:07;5.40;99.90
26224;DHT22;14820;48.682;8.890;2024-02-21T08:20:33;5.50;99.90
26224;DHT22;14820;48.682;8.890;2024-02-21T08:22:59;5.50;99.90
26224;DHT22;14820;48.682;8.890;2024-02-21T08:25:24;5.60;99.90
26224;DHT22;14820;48.682;8.890;2024-02-21T08:27:50;5.60;99.90
26224;DHT22;14820;48.682;8.890;2024-02-21T08:30:17;5.70;99.90
26224;DHT22;14820;48.682;8.890;2024-02-21T08:32:43;5.70;99.90
26224;DHT22;14820;48.682;8.890;2024-02-21T08:35:09;5.80;99.90
26224;DHT22;14820;48.682;8.890;2024-02-21T08:37:34;5.90;99.90
26224;DHT22;14820;48.682;8.890;2024-02-21T08:40:00;5.90;99.90
26224;DHT22;14820;48.682;8.890;2024-02-21T08:42:35;6.00;99.90
26224;DHT22;14820;48.682;8.890;2024-02-21T08:45:00;6.00;99.90
26224;DHT22;14820;48.682;8.890;2024-02-21T08:47:27;6.00;99.90
26224;DHT22;14820;48.682;8.890;2024-02-21T08:49:53;6.00;99.90
26224;DHT22;14820;48.682;8.890;2024-02-21T08:52:18;6.10;99.90
26224;DHT22;14820;48.682;8.890;2024-02-21T08:54:44;6.10;99.90
26224;DHT22;14820;48.682;8.890;2024-02-21T08:57:10;6.20;99.90
26224;DHT22;14820;48.682;8.890;2024-02-21T08:59:35;6.20;99.90
26224;DHT22;14820;48.682;8.890;2024-02-21T09:02:01;6.20;99.90
26224;DHT22;14820;48.682;8.890;2024-02-21T09:04:28;6.30;99.90
26224;DHT22;14820;48.682;8.890;2024-02-21T09:06:54;6.30;99.90
26224;DHT22;14820;48.682;8.890;2024-02-21T09:09:19;6.30;99.90
26224;DHT22;14820;48.682;8.890;2024-02-21T09:11:45;6.40;99.90
26224;DHT22;14820;48.682;8.890;2024-02-21T09:14:11;6.40;99.90
26224;DHT22;14820;48.682;8.890;2024-02-21T09:16:37;6.40;99.90
26224;DHT22;14820;48.682;8.890;2024-02-21T09:19:03;6.40;99.90
26224;DHT22;14820;48.682;8.890;2024-02-21T09:21:28;6.40;99.90
26224;DHT22;14820;48.682;8.890;2024-02-21T09:23:54;6.50;99.90
26224;DHT22;14820;48.682;8.890;2024-02-21T09:26:20;6.50;99.90
26224;DHT22;14820;48.682;8.890;2024-02-21T09:28:46;6.60;99.90
26224;DHT22;14820;48.682;8.890;2024-02-21T09:31:11;6.60;99.90
26224;DHT22;14820;48.682;8.890;2024-02-21T09:33:37;6.60;99.90
26224;DHT22;14820;48.682;8.890;2024-02-21T09:36:03;6.70;99.90
26224;DHT22;14820;48.682;8.890;2024-02-21T09:38:31;6.80;99.90
26224;DHT22;14820;48.682;8.890;2024-02-21T09:41:25;6.80;99.90
26224;DHT22;14820;48.682;8.890;2024-02-21T09:43:50;6.90;99.90
26224;DHT22;14820;48.682;8.890;2024-02-21T09:46:21;7.00;99.90
26224;DHT22;14820;48.682;8.890;2024-02-21T09:48:58;7.10;99.90
26224;DHT22;14820;48.682;8.890;2024-02-21T09:51:29;7.20;99.90
26224;DHT22;14820;48.682;8.890;2024-02-21T09:53:57;7.30;99.90
26224;DHT22;14820;48.682;8.890;2024-02-21T09:56:23;7.40;99.90
26224;DHT22;14820;48.682;8.890;2024-02-21T09:58:49;7.40;99.90
26224;DHT22;14820;48.682;8.890;2024-02-21T10:01:14;7.60;99.90
26224;DHT22;14820;48.682;8.890;2024-02-21T10:03:41;7.70;99.90
26224;DHT22;14820;48.682;8.890;2024-02-21T10:06:09;7.90;99.90
26224;DHT22;14820;48.682;8.890;2024-02-21T10:08:35;8.00;99.90
26224;DHT22;14820;48.682;8.890;2024-02-21T10:11:01;8.20;99.90
26224;DHT22;14820;48.682;8.890;2024-02-21T10:13:29;8.30;99.90
26224;DHT22;14820;48.682;8.890;2024-02-21T10:16:05;8.30;99.90
26224;DHT22;14820;48.682;8.890;2024-02-21T10:18:32;8.40;99.90
26224;DHT22;14820;48.682;8.890;2024-02-21T10:21:05;8.50;99.90
26224;DHT22;14820;48.682;8.890;2024-02-21T10:23:48;8.60;99.90
26224;DHT22;14820;48.682;8.890;2024-02-21T10:26:15;8.60;99.90
26224;DHT22;14820;48.682;8.890;2024-02-21T10:28:41;8.80;99.90
26224;DHT22;14820;48.682;8.890;2024-02-21T10:31:29;8.80;99.90
26224;DHT22;14820;48.682;8.890;2024-02-21T10:33:56;8.80;99.90
26224;DHT22;14820;48.682;8.890;2024-02-21T10:36:22;8.80;99.90
26224;DHT22;14820;48.682;8.890;2024-02-21T10:38:48;9.00;99.90
26224;DHT22;14820;48.682;8.890;2024-02-21T10:41:14;9.20;99.90
26224;DHT22;14820;48.682;8.890;2024-02-21T10:43:41;9.30;99.90
26224;DHT22;14820;48.682;8.890;2024-02-21T10:46:08;9.30;99.90
26224;DHT22;14820;48.682;8.890;2024-02-21T10:48:47;9.40;99.90
26224;DHT22;14820;48.682;8.890;2024-02-21T10:51:20;9.40;99.90
26224;DHT22;14820;48.682;8.890;2024-02-21T10:56:32;9.40;99.90
26224;DHT22;14820;48.682;8.890;2024-02-21T10:59:04;9.50;99.90
26224;DHT22;14820;48.682;8.890;2024-02-21T11:01:30;9.50;99.90
26224;DHT22;14820;48.682;8.890;2024-02-21T11:04:06;9.50;99.90
26224;DHT22;14820;48.682;8.890;2024-02-21T11:06:33;9.50;99.90
26224;DHT22;14820;48.682;8.890;2024-02-21T11:09:07;9.40;99.90
26224;DHT22;14820;48.682;8.890;2024-02-21T11:11:40;9.40;99.90
26224;DHT22;14820;48.682;8.890;2024-02-21T11:14:20;9.40;99.90
26224;DHT22;14820;48.682;8.890;2024-02-21T11:16:47;9.40;99.90
26224;DHT22;14820;48.682;8.890;2024-02-21T11:19:23;9.40;99.90
26224;DHT22;14820;48.682;8.890;2024-02-21T11:21:50;9.40;99.90
26224;DHT22;14820;48.682;8.890;2024-02-21T11:24:30;9.40;99.90
26224;DHT22;14820;48.682;8.890;2024-02-21T11:27:15;9.50;99.90
26224;DHT22;14820;48.682;8.890;2024-02-21T11:29:44;9.50;99.90
26224;DHT22;14820;48.682;8.890;2024-02-21T11:32:11;9.60;99.90
26224;DHT22;14820;48.682;8.890;2024-02-21T11:34:39;9.60;99.90
26224;DHT22;14820;48.682;8.890;2024-02-21T11:37:14;9.70;99.90
26224;DHT22;14820;48.682;8.890;2024-02-21T11:39:43;9.70;99.90
26224;DHT22;14820;48.682;8.890;2024-02-21T11:42:09;9.80;99.90
26224;DHT22;14820;48.682;8.890;2024-02-21T11:44:38;10.00;99.90
26224;DHT22;14820;48.682;8.890;2024-02-21T11:47:06;10.00;99.90
26224;DHT22;14820;48.682;8.890;2024-02-21T11:49:42;10.20;99.90
26224;DHT22;14820;48.682;8.890;2024-02-21T11:52:08;10.30;99.90
26224;DHT22;14820;48.682;8.890;2024-02-21T11:54:34;10.40;99.90
26224;DHT22;14820;48.682;8.890;2024-02-21T11:57:00;10.50;99.90
26224;DHT22;14820;48.682;8.890;2024-02-21T11:59:29;10.60;99.90
26224;DHT22;14820;48.682;8.890;2024-02-21T12:01:55;10.70;99.90
26224;DHT22;14820;48.682;8.890;2024-02-21T12:04:22;10.80;99.90
26224;DHT22;14820;48.682;8.890;2024-02-21T12:06:49;10.80;99.90
26224;DHT22;14820;48.682;8.890;2024-02-21T12:09:15;10.80;99.90
26224;DHT22;14820;48.682;8.890;2024-02-21T12:11:42;10.90;99.90
26224;DHT22;14820;48.682;8.890;2024-02-21T12:14:07;11.00;99.90
26224;DHT22;14820;48.682;8.890;2024-02-21T12:16:35;11.00;99.90
26224;DHT22;14820;48.682;8.890;2024-02-21T12:19:04;11.00;99.90
26224;DHT22;14820;48.682;8.890;2024-02-21T12:21:31;11.00;99.90
26224;DHT22;14820;48.682;8.890;2024-02-21T12:23:58;11.10;99.90
26224;DHT22;14820;48.682;8.890;2024-02-21T12:26:24;11.10;99.90
26224;DHT22;14820;48.682;8.890;2024-02-21T12:28:51;11.20;99.90
26224;DHT22;14820;48.682;8.890;2024-02-21T12:31:16;11.20;99.90
26224;DHT22;14820;48.682;8.890;2024-02-21T12:33:43;11.20;99.90
26224;DHT22;14820;48.682;8.890;2024-02-21T12:36:08;11.20;99.90
26224;DHT22;14820;48.682;8.890;2024-02-21T12:38:35;11.30;99.90
26224;DHT22;14820;48.682;8.890;2024-02-21T12:41:01;11.30;99.90
26224;DHT22;14820;48.682;8.890;2024-02-21T12:43:27;11.30;99.90
26224;DHT22;14820;48.682;8.890;2024-02-21T12:45:53;11.30;99.90
26224;DHT22;14820;48.682;8.890;2024-02-21T12:48:18;11.40;99.90
26224;DHT22;14820;48.682;8.890;2024-02-21T12:50:51;11.40;99.90
26224;DHT22;14820;48.682;8.890;2024-02-21T12:53:18;11.50;99.90
26224;DHT22;14820;48.682;8.890;2024-02-21T12:55:47;11.40;99.90
26224;DHT22;14820;48.682;8.890;2024-02-21T12:58:13;11.40;99.90
26224;DHT22;14820;48.682;8.890;2024-02-21T13:00:39;11.40;99.90
26224;DHT22;14820;48.682;8.890;2024-02-21T13:03:05;11.40;99.90
26224;DHT22;14820;48.682;8.890;2024-02-21T13:05:30;11.40;99.90
26224;DHT22;14820;48.682;8.890;2024-02-21T13:07:58;11.30;99.90
26224;DHT22;14820;48.682;8.890;2024-02-21T13:10:23;11.30;99.90
26224;DHT22;14820;48.682;8.890;2024-02-21T13:12:49;11.30;99.90
26224;DHT22;14820;48.682;8.890;2024-02-21T13:15:15;11.30;99.90
26224;DHT22;14820;48.682;8.890;2024-02-21T13:17:45;11.30;99.90
26224;DHT22;14820;48.682;8.890;2024-02-21T13:20:11;11.30;99.90
26224;DHT22;14820;48.682;8.890;2024-02-21T13:22:37;11.30;99.90
26224;DHT22;14820;48.682;8.890;2024-02-21T13:25:04;11.30;99.90
26224;DHT22;14820;48.682;8.890;2024-02-21T13:27:30;11.30;99.90
26224;DHT22;14820;48.682;8.890;2024-02-21T13:29:56;11.30;99.90
26224;DHT22;14820;48.682;8.890;2024-02-21T13:32:22;11.30;99.90
26224;DHT22;14820;48.682;8.890;2024-02-21T13:34:48;11.30;99.90
26224;DHT22;14820;48.682;8.890;2024-02-21T13:37:13;11.30;99.90
26224;DHT22;14820;48.682;8.890;2024-02-21T13:39:40;11.30;99.90
26224;DHT22;14820;48.682;8.890;2024-02-21T13:42:06;11.20;99.90
26224;DHT22;14820;48.682;8.890;2024-02-21T13:44:34;11.30;99.90
26224;DHT22;14820;48.682;8.890;2024-02-21T13:47:00;11.30;99.90
26224;DHT22;14820;48.682;8.890;2024-02-21T13:49:26;11.20;99.90
26224;DHT22;14820;48.682;8.890;2024-02-21T13:51:52;11.20;99.90
26224;DHT22;14820;48.682;8.890;2024-02-21T13:54:18;11.20;99.90
26224;DHT22;14820;48.682;8.890;2024-02-21T13:56:45;11.20;99.90
26224;DHT22;14820;48.682;8.890;2024-02-21T13:59:12;11.20;99.90
26224;DHT22;14820;48.682;8.890;2024-02-21T14:01:41;11.20;99.90
26224;DHT22;14820;48.682;8.890;2024-02-21T14:04:07;11.20;99.90
26224;DHT22;14820;48.682;8.890;2024-02-21T14:06:33;11.20;99.90
26224;DHT22;14820;48.682;8.890;2024-02-21T14:08:58;11.20;99.90
26224;DHT22;14820;48.682;8.890;2024-02-21T14:11:24;11.20;99.90
26224;DHT22;14820;48.682;8.890;2024-02-21T14:13:50;11.20;99.90
26224;DHT22;14820;48.682;8.890;2024-02-21T14:16:16;11.20;99.90
26224;DHT22;14820;48.682;8.890;2024-02-21T14:18:41;11.10;99.90
26224;DHT22;14820;48.682;8.890;2024-02-21T14:21:10;11.10;99.90
26224;DHT22;14820;48.682;8.890;2024-02-21T14:23:40;11.10;99.90
26224;DHT22;14820;48.682;8.890;2024-02-21T14:26:05;11.10;99.90
26224;DHT22;14820;48.682;8.890;2024-02-21T14:28:32;11.10;99.90
26224;DHT22;14820;48.682;8.890;2024-02-21T14:30:59;11.10;99.90
26224;DHT22;14820;48.682;8.890;2024-02-21T14:33:28;11.10;99.90
26224;DHT22;14820;48.682;8.890;2024-02-21T14:35:56;11.10;99.90
26224;DHT22;14820;48.682;8.890;2024-02-21T14:38:22;11.10;99.90
26224;DHT22;14820;48.682;8.890;2024-02-21T14:40:47;11.10;99.90
26224;DHT22;14820;48.682;8.890;2024-02-21T14:43:13;11.00;99.90
26224;DHT22;14820;48.682;8.890;2024-02-21T14:45:39;11.00;99.90
26224;DHT22;14820;48.682;8.890;2024-02-21T14:48:06;11.00;99.90
26224;DHT22;14820;48.682;8.890;2024-02-21T14:50:32;11.00;99.90
26224;DHT22;14820;48.682;8.890;2024-02-21T14:52:57;11.00;99.90
26224;DHT22;14820;48.682;8.890;2024-02-21T14:55:23;11.00;99.90
26224;DHT22;14820;48.682;8.890;2024-02-21T14:57:49;11.00;99.90
26224;DHT22;14820;48.682;8.890;2024-02-21T15:00:15;11.10;99.90
26224;DHT22;14820;48.682;8.890;2024-02-21T15:02:41;11.10;99.90
26224;DHT22;14820;48.682;8.890;2024-02-21T15:05:08;11.10;99.90
26224;DHT22;14820;48.682;8.890;2024-02-21T15:07:34;11.10;99.90
26224;DHT22;14820;48.682;8.890;2024-02-21T15:09:59;11.10;99.90
26224;DHT22;14820;48.682;8.890;2024-02-21T15:12:25;11.00;99.90
26224;DHT22;14820;48.682;8.890;2024-02-21T15:14:51;11.00;99.90
26224;DHT22;14820;48.682;8.890;2024-02-21T15:17:17;11.00;99.90
26224;DHT22;14820;48.682;8.890;2024-02-21T15:19:44;11.00;99.90
26224;DHT22;14820;48.682;8.890;2024-02-21T15:22:13;11.00;99.90
26224;DHT22;14820;48.682;8.890;2024-02-21T15:24:39;11.00;99.90
26224;DHT22;14820;48.682;8.890;2024-02-21T15:27:06;11.00;99.90
26224;DHT22;14820;48.682;8.890;2024-02-21T15:29:32;11.00;99.90
26224;DHT22;14820;48.682;8.890;2024-02-21T15:31:58;10.90;99.90
26224;DHT22;14820;48.682;8.890;2024-02-21T15:34:23;10.90;99.90
26224;DHT22;14820;48.682;8.890;2024-02-21T15:36:49;10.90;99.90
26224;DHT22;14820;48.682;8.890;2024-02-21T15:39:15;11.00;99.90
26224;DHT22;14820;48.682;8.890;2024-02-21T15:41:40;11.00;99.90